Time;durP1;ratioP1;P1;durP2;ratioP2;P2;SDS_P1;SDS_P2;PMS_P1;PMS_P2;Temp;Humidity;BMP_temperature;BMP_pressure;BME280_temperature;BME280_humidity;BME280_pressure;Samples;Min_cycle;Max_cycle;Signal;HPM_P1;HPM_P2
2022/10/22 00:01:00;;;;;;;2.10;0.93;;;;;;;;;;5005512;28;20497;-66
2022/10/22 00:03:31;;;;;;;3.88;1.13;;;;;;;;;;5015341;28;20045;-65
2022/10/22 00:06:01;;;;;;;3.03;1.25;;;;;;;;;;5050668;28;20065;-65
2022/10/22 00:08:31;;;;;;;4.63;1.38;;;;;;;;;;5055029;28;20052;-65
2022/10/22 00:11:14;;;;;;;3.22;1.13;;;;;;;;;;5031994;28;20049;-65
2022/10/22 00:13:45;;;;;;;3.20;1.40;;;;;;;;;;5031915;28;20185;-66
2022/10/22 00:16:16;;;;;;;6.50;1.27;;;;;;;;;;5031635;28;20052;-65
2022/10/22 00:18:46;;;;;;;3.70;1.63;;;;;;;;;;5015891;28;20086;-65
2022/10/22 00:21:16;;;;;;;3.20;1.25;;;;;;;;;;4999089;28;20050;-65
2022/10/22 00:23:46;;;;;;;3.38;1.08;;;;;;;;;;5031720;28;20501;-65
2022/10/22 00:26:18;;;;;;;4.32;1.10;;;;;;;;;;4998119;28;20053;-65
2022/10/22 00:28:49;;;;;;;5.78;1.30;;;;;;;;;;5031625;28;20049;-65
2022/10/22 00:31:19;;;;;;;9.38;2.45;;;;;;;;;;5014916;28;20060;-65
2022/10/22 00:33:50;;;;;;;8.60;2.58;;;;;;;;;;5031655;28;20417;-65
2022/10/22 00:36:20;;;;;;;8.68;2.08;;;;;;;;;;5031387;28;20057;-65
2022/10/22 00:38:50;;;;;;;5.88;1.75;;;;;;;;;;5014834;28;20060;-65
2022/10/22 00:41:20;;;;;;;5.97;1.42;;;;;;;;;;5021966;28;20067;-66
2022/10/22 00:44:04;;;;;;;3.03;1.13;;;;;;;;;;5071246;28;20063;-65
2022/10/22 00:46:34;;;;;;;6.03;1.15;;;;;;;;;;5054493;28;20408;-65
2022/10/22 00:49:04;;;;;;;5.88;1.40;;;;;;;;;;5086578;28;20063;-65
2022/10/22 00:51:35;;;;;;;4.57;1.13;;;;;;;;;;5093848;28;20055;-65
2022/10/22 00:54:08;;;;;;;3.55;1.20;;;;;;;;;;5074885;28;20067;-66
2022/10/22 00:56:39;;;;;;;4.70;1.33;;;;;;;;;;5074752;28;20682;-65
2022/10/22 00:59:12;;;;;;;4.32;1.42;;;;;;;;;;5093597;28;20052;-65
2022/10/22 01:01:44;;;;;;;3.15;1.73;;;;;;;;;;5093541;28;20036;-65
2022/10/22 01:04:14;;;;;;;5.18;1.60;;;;;;;;;;5090793;28;20515;-65
2022/10/22 01:06:46;;;;;;;9.13;1.50;;;;;;;;;;5074399;28;20412;-65
2022/10/22 01:09:25;;;;;;;3.53;1.17;;;;;;;;;;5093470;28;20407;-65
2022/10/22 01:12:29;;;;;;;5.32;1.48;;;;;;;;;;5093323;28;20403;-65
2022/10/22 01:15:20;;;;;;;4.90;1.63;;;;;;;;;;5057869;28;20063;-64
2022/10/22 01:18:06;;;;;;;2.97;1.13;;;;;;;;;;5093173;28;20404;-66
2022/10/22 01:20:55;;;;;;;2.92;1.20;;;;;;;;;;5074538;28;20052;-66
2022/10/22 01:23:55;;;;;;;3.30;0.88;;;;;;;;;;5070485;28;20040;-66
2022/10/22 01:27:04;;;;;;;2.42;1.80;;;;;;;;;;5070367;28;20064;-66
2022/10/22 01:29:49;;;;;;;3.50;0.73;;;;;;;;;;4939469;28;20047;-66
2022/10/22 01:32:25;;;;;;;3.70;0.90;;;;;;;;;;4914107;29;20056;-65
2022/10/22 01:35:08;;;;;;;3.15;1.17;;;;;;;;;;4898631;29;20060;-66
2022/10/22 01:37:44;;;;;;;4.70;1.15;;;;;;;;;;4913873;29;20091;-66
2022/10/22 01:40:16;;;;;;;2.88;1.35;;;;;;;;;;4884280;29;20529;-66
2022/10/22 01:43:04;;;;;;;1.60;1.00;;;;;;;;;;4929193;29;20048;-66
2022/10/22 01:45:44;;;;;;;6.03;1.17;;;;;;;;;;4914102;29;20068;-66
2022/10/22 01:48:26;;;;;;;1.75;0.70;;;;;;;;;;4913738;29;20052;-66
2022/10/22 01:51:05;;;;;;;4.35;1.17;;;;;;;;;;4897998;29;20063;-66
2022/10/22 01:54:00;;;;;;;3.30;1.23;;;;;;;;;;4913927;29;20056;-66
2022/10/22 01:57:08;;;;;;;4.75;1.58;;;;;;;;;;4913889;29;20067;-66
2022/10/22 02:00:14;;;;;;;6.88;2.55;;;;;;;;;;4894924;29;20104;-66
2022/10/22 02:03:22;;;;;;;5.70;1.55;;;;;;;;;;4913408;29;20397;-66
2022/10/22 02:05:58;;;;;;;9.95;3.22;;;;;;;;;;4899296;29;20059;-66
2022/10/22 02:08:32;;;;;;;5.40;2.28;;;;;;;;;;4898058;29;20067;-66
2022/10/22 02:11:04;;;;;;;4.88;2.10;;;;;;;;;;4899930;29;20130;-66
2022/10/22 02:13:40;;;;;;;9.43;2.92;;;;;;;;;;4932614;29;20397;-65
2022/10/22 02:16:15;;;;;;;10.02;3.08;;;;;;;;;;4932075;29;20404;-66
2022/10/22 02:18:48;;;;;;;8.30;2.40;;;;;;;;;;4932596;29;20078;-66
2022/10/22 02:21:19;;;;;;;16.92;2.58;;;;;;;;;;4916063;29;20059;-66
2022/10/22 02:23:49;;;;;;;7.35;2.33;;;;;;;;;;4932401;29;20206;-66
2022/10/22 02:26:24;;;;;;;3.28;1.73;;;;;;;;;;4900339;29;20052;-66
2022/10/22 02:29:19;;;;;;;7.90;1.88;;;;;;;;;;4932411;29;20062;-66
2022/10/22 02:31:51;;;;;;;3.80;1.30;;;;;;;;;;4932263;29;20075;-66
2022/10/22 02:34:23;;;;;;;;;;;;;;;;;;4901340;29;20067;-66
2022/10/22 02:36:53;;;;;;;;;;;;;;;;;;4973815;28;19921;-66
2022/10/22 02:39:23;;;;;;;1.33;0.52;;;;;;;;;;5024736;28;20391;-66
2022/10/22 02:41:54;;;;;;;3.30;0.80;;;;;;;;;;5069350;28;20456;-65
2022/10/22 02:44:24;;;;;;;4.70;1.08;;;;;;;;;;5069476;28;20056;-66
2022/10/22 02:46:55;;;;;;;3.95;0.90;;;;;;;;;;5003437;28;20061;-66
2022/10/22 02:49:25;;;;;;;3.30;0.90;;;;;;;;;;5090581;28;20063;-66
2022/10/22 02:51:55;;;;;;;6.15;0.82;;;;;;;;;;5096016;28;20048;-66
2022/10/22 02:54:25;;;;;;;4.47;1.00;;;;;;;;;;5073137;28;20428;-66
2022/10/22 02:56:54;;;;;;;4.40;1.00;;;;;;;;;;5039862;28;20397;-66
2022/10/22 02:59:25;;;;;;;1.70;0.90;;;;;;;;;;5073595;28;20059;-66
2022/10/22 03:01:55;;;;;;;4.43;0.93;;;;;;;;;;5020849;28;20049;-66
2022/10/22 03:04:25;;;;;;;6.22;0.65;;;;;;;;;;5053257;28;20063;-66
2022/10/22 03:06:56;;;;;;;4.35;1.02;;;;;;;;;;5053062;28;20642;-66
2022/10/22 03:09:26;;;;;;;8.65;1.02;;;;;;;;;;5053383;28;20087;-66
2022/10/22 03:11:56;;;;;;;6.13;0.98;;;;;;;;;;5052912;28;20060;-66
2022/10/22 03:14:26;;;;;;;3.40;1.00;;;;;;;;;;5036078;28;20052;-66
2022/10/22 03:16:56;;;;;;;5.10;1.10;;;;;;;;;;5035876;28;20147;-66
2022/10/22 03:19:26;;;;;;;1.88;0.57;;;;;;;;;;5052842;28;20131;-66
2022/10/22 03:22:06;;;;;;;2.65;0.82;;;;;;;;;;5052781;28;20048;-66
2022/10/22 03:24:44;;;;;;;2.85;0.88;;;;;;;;;;5052896;28;20036;-66
2022/10/22 03:27:18;;;;;;;1.45;0.82;;;;;;;;;;5052721;28;20072;-66
2022/10/22 03:29:50;;;;;;;4.38;0.88;;;;;;;;;;5052794;28;20060;-66
2022/10/22 03:32:20;;;;;;;2.10;0.77;;;;;;;;;;5015263;28;20404;-66
2022/10/22 03:34:50;;;;;;;5.50;1.02;;;;;;;;;;5039343;28;20064;-66
2022/10/22 03:37:20;;;;;;;2.13;0.95;;;;;;;;;;5039309;28;20419;-66
2022/10/22 03:39:51;;;;;;;2.35;0.93;;;;;;;;;;5051929;28;20048;-66
2022/10/22 03:42:22;;;;;;;1.95;0.98;;;;;;;;;;5038689;28;20041;-66
2022/10/22 03:44:52;;;;;;;1.83;0.77;;;;;;;;;;5023166;28;20040;-66
2022/10/22 03:47:23;;;;;;;2.25;0.95;;;;;;;;;;5039045;28;20055;-66
2022/10/22 03:49:53;;;;;;;2.88;0.88;;;;;;;;;;5072550;28;20481;-66
2022/10/22 03:52:24;;;;;;;3.80;1.25;;;;;;;;;;5038913;28;20063;-66
2022/10/22 03:54:54;;;;;;;2.13;0.93;;;;;;;;;;5072297;28;20056;-66
2022/10/22 03:57:24;;;;;;;1.83;0.93;;;;;;;;;;5039220;28;20057;-66
2022/10/22 03:59:54;;;;;;;7.63;1.20;;;;;;;;;;5072137;28;20478;-66
2022/10/22 04:02:24;;;;;;;4.50;1.10;;;;;;;;;;5055282;28;20053;-66
2022/10/22 04:04:54;;;;;;;4.75;1.15;;;;;;;;;;5012107;28;20116;-66
2022/10/22 04:07:24;;;;;;;2.50;1.02;;;;;;;;;;5012273;28;20069;-66
2022/10/22 04:09:54;;;;;;;5.65;1.20;;;;;;;;;;5012426;28;20058;-66
2022/10/22 04:12:23;;;;;;;5.78;1.00;;;;;;;;;;5012274;28;20054;-66
2022/10/22 04:14:53;;;;;;;2.63;1.20;;;;;;;;;;4956774;28;20384;-66
2022/10/22 04:17:23;;;;;;;2.85;1.17;;;;;;;;;;4940802;28;20058;-66
2022/10/22 04:19:53;;;;;;;4.70;1.30;;;;;;;;;;4942894;28;20072;-66
2022/10/22 04:22:23;;;;;;;2.47;1.05;;;;;;;;;;5011907;28;20453;-66
2022/10/22 04:24:53;;;;;;;3.28;1.20;;;;;;;;;;5012118;28;20057;-66
2022/10/22 04:27:22;;;;;;;9.15;1.13;;;;;;;;;;5011939;28;20058;-66
2022/10/22 04:29:52;;;;;;;3.65;1.27;;;;;;;;;;4963215;28;20062;-66
2022/10/22 04:32:22;;;;;;;4.93;0.93;;;;;;;;;;5011797;28;20057;-66
2022/10/22 04:34:52;;;;;;;3.40;0.82;;;;;;;;;;4979246;28;20050;-66
2022/10/22 04:37:22;;;;;;;3.15;1.10;;;;;;;;;;5011769;28;20062;-66
2022/10/22 04:39:51;;;;;;;3.10;0.88;;;;;;;;;;4995861;28;20528;-66
2022/10/22 04:42:21;;;;;;;2.20;1.00;;;;;;;;;;4971500;28;20057;-66
2022/10/22 04:44:51;;;;;;;4.03;1.00;;;;;;;;;;5031267;28;20061;-66
2022/10/22 04:47:21;;;;;;;4.20;1.27;;;;;;;;;;4982198;28;20469;-66
2022/10/22 04:49:51;;;;;;;2.55;0.95;;;;;;;;;;4999420;28;20054;-66
2022/10/22 04:52:22;;;;;;;4.95;1.88;;;;;;;;;;5057458;28;20482;-66
2022/10/22 04:54:52;;;;;;;5.50;1.50;;;;;;;;;;5057928;28;20063;-66
2022/10/22 04:57:22;;;;;;;4.90;1.85;;;;;;;;;;5091673;28;20075;-66
2022/10/22 04:59:52;;;;;;;4.82;1.70;;;;;;;;;;5091284;28;20076;-66
2022/10/22 05:02:22;;;;;;;4.45;1.33;;;;;;;;;;5092146;28;20510;-66
2022/10/22 05:04:52;;;;;;;2.88;1.40;;;;;;;;;;5092219;28;20047;-66
2022/10/22 05:07:22;;;;;;;2.97;1.30;;;;;;;;;;5070443;28;20060;-66
2022/10/22 05:09:53;;;;;;;4.03;1.50;;;;;;;;;;5050365;28;20071;-66
2022/10/22 05:12:23;;;;;;;4.85;1.35;;;;;;;;;;5030087;28;20049;-66
2022/10/22 05:14:54;;;;;;;1.92;1.13;;;;;;;;;;5030820;28;20061;-66
2022/10/22 05:17:25;;;;;;;3.70;1.50;;;;;;;;;;4997775;28;20553;-66
2022/10/22 05:19:55;;;;;;;4.45;1.40;;;;;;;;;;4982427;28;20060;-66
2022/10/22 05:22:25;;;;;;;7.53;1.70;;;;;;;;;;4991184;28;20062;-66
2022/10/22 05:24:55;;;;;;;8.35;1.42;;;;;;;;;;4991211;28;20073;-66
2022/10/22 05:27:25;;;;;;;2.88;1.30;;;;;;;;;;4991404;28;20051;-66
2022/10/22 05:29:54;;;;;;;4.75;1.40;;;;;;;;;;4991139;28;20054;-66
2022/10/22 05:32:24;;;;;;;3.42;1.27;;;;;;;;;;4958563;28;20619;-66
2022/10/22 05:34:54;;;;;;;2.95;1.30;;;;;;;;;;4990935;28;20062;-66
2022/10/22 05:37:24;;;;;;;8.43;1.35;;;;;;;;;;4974711;28;20054;-66
2022/10/22 05:39:53;;;;;;;4.10;0.95;;;;;;;;;;4959480;28;20519;-66
2022/10/22 05:42:43;;;;;;;2.85;1.30;;;;;;;;;;4978284;28;20062;-66
2022/10/22 05:45:13;;;;;;;3.50;1.10;;;;;;;;;;4970026;28;20058;-66
2022/10/22 05:47:44;;;;;;;3.15;1.15;;;;;;;;;;4984602;28;20522;-66
2022/10/22 05:50:14;;;;;;;2.45;1.33;;;;;;;;;;5050038;28;20064;-66
2022/10/22 05:52:44;;;;;;;4.20;1.50;;;;;;;;;;4969045;28;20464;-66
2022/10/22 05:55:13;;;;;;;3.75;1.27;;;;;;;;;;4978284;28;20069;-66
2022/10/22 05:57:43;;;;;;;3.25;1.23;;;;;;;;;;5010421;28;20058;-66
2022/10/22 06:00:14;;;;;;;5.38;1.27;;;;;;;;;;4989038;28;20064;-66
2022/10/22 06:02:48;;;;;;;3.40;1.33;;;;;;;;;;5029950;28;20528;-66
2022/10/22 06:05:18;;;;;;;3.03;1.15;;;;;;;;;;5029870;28;20058;-66
2022/10/22 06:07:49;;;;;;;4.43;1.30;;;;;;;;;;4966136;28;20046;-66
2022/10/22 06:10:20;;;;;;;3.72;1.10;;;;;;;;;;5042200;28;20615;-66
2022/10/22 06:12:51;;;;;;;3.35;1.20;;;;;;;;;;5000496;28;20056;-66
2022/10/22 06:15:21;;;;;;;8.30;1.42;;;;;;;;;;5049679;28;20045;-66
2022/10/22 06:17:51;;;;;;;7.47;1.48;;;;;;;;;;5029691;28;20406;-66
2022/10/22 06:20:20;;;;;;;3.00;1.52;;;;;;;;;;5005989;28;20038;-66
2022/10/22 06:22:50;;;;;;;4.65;1.52;;;;;;;;;;4989422;28;20054;-65
2022/10/22 06:25:20;;;;;;;2.55;1.13;;;;;;;;;;4958000;28;20542;-65
2022/10/22 06:27:50;;;;;;;5.43;1.45;;;;;;;;;;4990300;28;20054;-65
2022/10/22 06:30:21;;;;;;;2.97;1.20;;;;;;;;;;4957800;28;20517;-66
2022/10/22 06:32:50;;;;;;;2.53;1.15;;;;;;;;;;4980625;28;20410;-66
2022/10/22 06:35:20;;;;;;;7.90;1.42;;;;;;;;;;4990227;28;20054;-66
2022/10/22 06:37:51;;;;;;;3.58;1.65;;;;;;;;;;4990317;28;20061;-66
2022/10/22 06:40:22;;;;;;;4.03;1.23;;;;;;;;;;5006284;28;20057;-66
2022/10/22 06:42:52;;;;;;;5.97;1.58;;;;;;;;;;4990190;28;20441;-66
2022/10/22 06:45:22;;;;;;;4.75;1.30;;;;;;;;;;4990053;28;20066;-66
2022/10/22 06:47:52;;;;;;;6.75;1.73;;;;;;;;;;4990042;28;20118;-65
2022/10/22 06:50:22;;;;;;;4.13;1.40;;;;;;;;;;4958075;28;20062;-66
2022/10/22 06:52:52;;;;;;;4.38;1.33;;;;;;;;;;4990350;28;20061;-66
2022/10/22 06:55:22;;;;;;;2.83;1.30;;;;;;;;;;4957798;28;20063;-66
2022/10/22 06:57:54;;;;;;;7.75;1.65;;;;;;;;;;4990196;28;20414;-66
2022/10/22 07:00:24;;;;;;;5.65;1.50;;;;;;;;;;4990019;28;20159;-66
2022/10/22 07:02:55;;;;;;;5.72;1.80;;;;;;;;;;5006224;28;20058;-66
2022/10/22 07:05:28;;;;;;;8.20;1.92;;;;;;;;;;4990063;28;20065;-66
2022/10/22 07:07:58;;;;;;;7.63;2.28;;;;;;;;;;4990216;28;20058;-66
2022/10/22 07:10:27;;;;;;;7.10;2.55;;;;;;;;;;5045294;28;20060;-66
2022/10/22 07:12:59;;;;;;;8.30;3.38;;;;;;;;;;5049017;28;20517;-66
2022/10/22 07:15:28;;;;;;;14.25;4.70;;;;;;;;;;5068876;28;20068;-65
2022/10/22 07:17:59;;;;;;;14.50;4.97;;;;;;;;;;5068972;28;20063;-66
2022/10/22 07:20:29;;;;;;;14.32;4.15;;;;;;;;;;5069092;28;20056;-66
2022/10/22 07:22:58;;;;;;;8.30;3.50;;;;;;;;;;5052628;28;20053;-66
2022/10/22 07:25:28;;;;;;;6.07;2.40;;;;;;;;;;5035647;28;20065;-66
2022/10/22 07:27:58;;;;;;;5.38;1.70;;;;;;;;;;5048598;28;20072;-66
2022/10/22 07:30:28;;;;;;;5.18;1.77;;;;;;;;;;5048976;28;20057;-66
2022/10/22 07:32:58;;;;;;;7.30;1.88;;;;;;;;;;5048662;28;20072;-66
2022/10/22 07:35:28;;;;;;;5.70;1.50;;;;;;;;;;5051850;28;20045;-66
2022/10/22 07:37:57;;;;;;;6.80;2.28;;;;;;;;;;5035827;28;20505;-66
2022/10/22 07:40:28;;;;;;;9.77;3.65;;;;;;;;;;5052687;28;20064;-66
2022/10/22 07:42:57;;;;;;;9.45;3.13;;;;;;;;;;5052403;28;20049;-66
2022/10/22 07:45:27;;;;;;;4.80;2.03;;;;;;;;;;5019334;28;20057;-66
2022/10/22 07:47:59;;;;;;;7.68;2.78;;;;;;;;;;5019229;28;20056;-66
2022/10/22 07:50:29;;;;;;;9.15;2.30;;;;;;;;;;5035498;28;20055;-66
2022/10/22 07:53:00;;;;;;;5.93;2.25;;;;;;;;;;5061493;28;20053;-66
2022/10/22 07:55:30;;;;;;;6.63;2.50;;;;;;;;;;5039556;28;20060;-66
2022/10/22 07:58:00;;;;;;;9.10;2.60;;;;;;;;;;5072162;28;20056;-66
2022/10/22 08:00:31;;;;;;;7.47;2.50;;;;;;;;;;5055414;28;20054;-66
2022/10/22 08:03:01;;;;;;;11.45;2.95;;;;;;;;;;5039225;28;20053;-66
2022/10/22 08:05:31;;;;;;;5.63;1.83;;;;;;;;;;5082763;28;20068;-66
2022/10/22 08:08:01;;;;;;;2.58;1.30;;;;;;;;;;5094669;28;20114;-66
2022/10/22 08:10:32;;;;;;;3.88;1.55;;;;;;;;;;5075628;28;20063;-66
2022/10/22 08:13:02;;;;;;;5.15;1.33;;;;;;;;;;5059300;28;20055;-66
2022/10/22 08:15:33;;;;;;;3.22;1.38;;;;;;;;;;5094225;28;20075;-65
2022/10/22 08:18:03;;;;;;;4.10;1.48;;;;;;;;;;5094590;28;20040;-66
2022/10/22 08:20:34;;;;;;;5.72;1.42;;;;;;;;;;5094632;28;20070;-66
2022/10/22 08:23:05;;;;;;;9.05;1.90;;;;;;;;;;5094332;28;20044;-66
2022/10/22 08:25:35;;;;;;;3.97;1.40;;;;;;;;;;5094205;28;20044;-66
2022/10/22 08:28:05;;;;;;;4.22;1.38;;;;;;;;;;5092221;28;20067;-66
2022/10/22 08:30:37;;;;;;;5.35;1.45;;;;;;;;;;5094268;28;20044;-66
2022/10/22 08:33:08;;;;;;;4.20;1.63;;;;;;;;;;5058473;28;20071;-66
2022/10/22 08:35:38;;;;;;;5.38;1.73;;;;;;;;;;5075539;28;20070;-66
2022/10/22 08:38:09;;;;;;;5.00;1.52;;;;;;;;;;5075019;28;20044;-66
2022/10/22 08:40:40;;;;;;;4.70;2.03;;;;;;;;;;5094046;28;20044;-66
2022/10/22 08:43:55;;;;;;;6.53;2.03;;;;;;;;;;5074871;28;20044;-66
2022/10/22 08:46:28;;;;;;;6.82;1.70;;;;;;;;;;5001015;28;20061;-66
2022/10/22 08:49:02;;;;;;;7.65;1.83;;;;;;;;;;5051357;28;20049;-66
2022/10/22 08:51:39;;;;;;;5.07;1.77;;;;;;;;;;5051378;28;20045;-66
2022/10/22 08:54:30;;;;;;;5.00;1.58;;;;;;;;;;5051373;28;20520;-66
2022/10/22 08:57:15;;;;;;;5.82;1.80;;;;;;;;;;5010911;28;20046;-66
2022/10/22 08:59:56;;;;;;;5.82;1.33;;;;;;;;;;5011198;28;20078;-66
2022/10/22 09:02:56;;;;;;;5.50;1.70;;;;;;;;;;5011271;28;20058;-66
2022/10/22 09:05:41;;;;;;;3.25;1.60;;;;;;;;;;4959490;28;20055;-66
2022/10/22 09:08:16;;;;;;;4.78;1.60;;;;;;;;;;4991646;28;20418;-66
2022/10/22 09:11:01;;;;;;;3.58;1.73;;;;;;;;;;4991502;28;20418;-67
2022/10/22 09:13:32;;;;;;;4.53;1.67;;;;;;;;;;4991504;28;20465;-66
2022/10/22 09:16:16;;;;;;;6.40;2.05;;;;;;;;;;4991274;28;20058;-66
2022/10/22 09:19:14;;;;;;;4.50;2.25;;;;;;;;;;4975078;28;20061;-66
2022/10/22 09:22:01;;;;;;;7.32;2.28;;;;;;;;;;4971751;28;20046;-66
2022/10/22 09:24:37;;;;;;;5.22;2.10;;;;;;;;;;4990977;28;20433;-66
2022/10/22 09:27:15;;;;;;;6.63;2.13;;;;;;;;;;4974982;28;20784;-66
2022/10/22 09:29:47;;;;;;;6.50;2.42;;;;;;;;;;4958738;28;20586;-66
2022/10/22 09:32:18;;;;;;;7.97;2.75;;;;;;;;;;4991046;28;20046;-66
2022/10/22 09:34:49;;;;;;;5.88;2.05;;;;;;;;;;5002459;28;20065;-67
2022/10/22 09:37:26;;;;;;;4.53;1.55;;;;;;;;;;5010566;28;20052;-66
2022/10/22 09:40:02;;;;;;;3.60;1.88;;;;;;;;;;4977969;28;20150;-66
2022/10/22 09:42:33;;;;;;;8.27;2.30;;;;;;;;;;5041275;28;20044;-66
2022/10/22 09:45:04;;;;;;;5.55;2.17;;;;;;;;;;5020085;28;20076;-66
2022/10/22 09:47:38;;;;;;;5.85;1.90;;;;;;;;;;5070128;28;20055;-66
2022/10/22 09:50:48;;;;;;;5.03;2.13;;;;;;;;;;5070053;28;20052;-66
2022/10/22 09:53:57;;;;;;;7.75;2.00;;;;;;;;;;5070122;28;20057;-66
2022/10/22 09:56:40;;;;;;;7.78;2.15;;;;;;;;;;4994060;28;20069;-66
2022/10/22 09:59:18;;;;;;;6.50;2.20;;;;;;;;;;5018613;28;20069;-66
2022/10/22 10:02:01;;;;;;;4.95;2.28;;;;;;;;;;5029937;28;20466;-66
2022/10/22 10:04:53;;;;;;;4.78;2.05;;;;;;;;;;5029815;28;20494;-67
2022/10/22 10:07:30;;;;;;;3.53;1.83;;;;;;;;;;4997341;28;20076;-66
2022/10/22 10:10:02;;;;;;;4.35;2.00;;;;;;;;;;4996992;28;20065;-67
2022/10/22 10:12:53;;;;;;;7.53;2.10;;;;;;;;;;5029728;28;20065;-66
2022/10/22 10:16:18;;;;;;;4.03;1.77;;;;;;;;;;5029424;28;20501;-67
2022/10/22 10:19:20;;;;;;;8.45;2.42;;;;;;;;;;4954775;28;20189;-66
2022/10/22 10:21:51;;;;;;;3.85;1.70;;;;;;;;;;4932481;29;20064;-66
2022/10/22 10:24:25;;;;;;;7.10;1.88;;;;;;;;;;4932267;29;20063;-67
2022/10/22 10:27:09;;;;;;;6.50;2.38;;;;;;;;;;4932510;29;20420;-66
2022/10/22 10:29:54;;;;;;;5.15;1.95;;;;;;;;;;4932357;29;20076;-66
2022/10/22 10:32:51;;;;;;;3.25;1.67;;;;;;;;;;4912686;28;20124;-66
2022/10/22 10:35:24;;;;;;;5.15;1.95;;;;;;;;;;4951585;28;20424;-66
2022/10/22 10:38:19;;;;;;;6.18;3.63;;;;;;;;;;4951225;28;20058;-66
2022/10/22 10:41:31;;;;;;;3.53;1.63;;;;;;;;;;4951573;28;20047;-66
2022/10/22 10:44:22;;;;;;;3.58;1.42;;;;;;;;;;4951536;28;20059;-66
2022/10/22 10:47:17;;;;;;;4.00;1.50;;;;;;;;;;4951509;28;20047;-67
2022/10/22 10:49:52;;;;;;;3.33;1.40;;;;;;;;;;4919610;28;20059;-66
2022/10/22 10:52:31;;;;;;;5.32;1.70;;;;;;;;;;4877200;29;20056;-66
2022/10/22 10:55:13;;;;;;;4.40;1.42;;;;;;;;;;4919838;28;20428;-66
2022/10/22 10:58:28;;;;;;;3.38;1.25;;;;;;;;;;4958500;28;20058;-66
2022/10/22 11:01:20;;;;;;;2.70;1.20;;;;;;;;;;4990079;28;20569;-66
2022/10/22 11:03:58;;;;;;;4.25;1.83;;;;;;;;;;4978449;28;20083;-66
2022/10/22 11:06:30;;;;;;;;;;;;;;;;;;4943008;28;20483;-66
2022/10/22 11:09:25;;;;;;;1.73;0.93;;;;;;;;;;4970985;28;19922;-67
2022/10/22 11:12:02;;;;;;;1.27;0.65;;;;;;;;;;4916530;29;20512;-67
2022/10/22 11:14:41;;;;;;;1.38;0.75;;;;;;;;;;4916340;29;20063;-66
2022/10/22 11:17:17;;;;;;;2.95;0.90;;;;;;;;;;4916570;29;20071;-67
2022/10/22 11:19:58;;;;;;;2.00;1.02;;;;;;;;;;4916892;29;20342;-67
2022/10/22 11:22:51;;;;;;;1.85;0.70;;;;;;;;;;4897499;29;20068;-67
2022/10/22 11:25:47;;;;;;;3.53;0.93;;;;;;;;;;4897750;29;20048;-67
2022/10/22 11:28:41;;;;;;;2.80;1.83;;;;;;;;;;4897719;29;20509;-66
2022/10/22 11:31:16;;;;;;;1.30;0.70;;;;;;;;;;4935236;29;20055;-65
2022/10/22 11:34:02;;;;;;;2.58;1.05;;;;;;;;;;4935260;29;20062;-65
2022/10/22 11:36:53;;;;;;;1.88;0.95;;;;;;;;;;4973880;28;20395;-65
2022/10/22 11:39:58;;;;;;;3.03;1.25;;;;;;;;;;4941131;28;20050;-65
2022/10/22 11:42:44;;;;;;;1.67;0.80;;;;;;;;;;5009444;28;20054;-65
2022/10/22 11:45:14;;;;;;;5.00;1.13;;;;;;;;;;4992886;28;20046;-66
2022/10/22 11:47:57;;;;;;;2.70;1.33;;;;;;;;;;4992713;28;20414;-71
2022/10/22 11:51:09;;;;;;;3.22;1.27;;;;;;;;;;5002778;28;20060;-66
2022/10/22 11:53:39;;;;;;;2.63;1.63;;;;;;;;;;5012373;28;20057;-65
2022/10/22 11:56:09;;;;;;;2.25;1.10;;;;;;;;;;4963333;28;20058;-67
2022/10/22 11:58:42;;;;;;;1.85;1.30;;;;;;;;;;5012299;28;20060;-67
2022/10/22 12:01:14;;;;;;;2.00;1.15;;;;;;;;;;4963992;28;20052;-67
2022/10/22 12:04:04;;;;;;;2.72;1.17;;;;;;;;;;4992442;28;20065;-67
2022/10/22 12:06:53;;;;;;;3.70;2.17;;;;;;;;;;4934582;29;20056;-68
2022/10/22 12:09:28;;;;;;;3.38;1.48;;;;;;;;;;4934841;29;20056;-67
2022/10/22 12:12:14;;;;;;;6.30;2.95;;;;;;;;;;4918703;29;20055;-66
2022/10/22 12:14:58;;;;;;;3.08;1.40;;;;;;;;;;4950405;28;20508;-67
2022/10/22 12:17:28;;;;;;;1.95;1.02;;;;;;;;;;4934346;29;20059;-66
2022/10/22 12:20:12;;;;;;;2.03;0.90;;;;;;;;;;4934350;29;20504;-67
2022/10/22 12:22:44;;;;;;;5.30;2.92;;;;;;;;;;4934102;29;20059;-65
2022/10/22 12:25:28;;;;;;;4.82;2.05;;;;;;;;;;4969243;28;20055;-65
2022/10/22 12:28:04;;;;;;;8.25;5.28;;;;;;;;;;4953204;29;20062;-66
2022/10/22 12:30:34;;;;;;;2.20;1.17;;;;;;;;;;4905882;29;20417;-66
2022/10/22 12:33:07;;;;;;;3.33;1.45;;;;;;;;;;4896530;29;20060;-66
2022/10/22 12:35:46;;;;;;;5.90;2.97;;;;;;;;;;4896304;29;20441;-65
2022/10/22 12:38:19;;;;;;;32.17;12.27;;;;;;;;;;4896395;29;20067;-65
2022/10/22 12:40:53;;;;;;;3.50;1.70;;;;;;;;;;4901065;29;20068;-65
2022/10/22 12:43:29;;;;;;;4.45;1.92;;;;;;;;;;4939480;28;20123;-66
2022/10/22 12:46:00;;;;;;;2.53;1.42;;;;;;;;;;4975976;28;20054;-65
2022/10/22 12:48:37;;;;;;;9.73;5.15;;;;;;;;;;4976364;28;20050;-66
2022/10/22 12:51:09;;;;;;;3.25;1.73;;;;;;;;;;4991961;28;20058;-65
2022/10/22 12:53:45;;;;;;;2.90;1.83;;;;;;;;;;4975825;28;20058;-65
2022/10/22 12:56:33;;;;;;;2.97;1.80;;;;;;;;;;4991806;28;20059;-65
2022/10/22 12:59:19;;;;;;;3.58;1.92;;;;;;;;;;4991878;28;20069;-65
2022/10/22 13:01:50;;;;;;;2.33;1.10;;;;;;;;;;5027951;28;20417;-65
2022/10/22 13:04:27;;;;;;;3.28;1.20;;;;;;;;;;5090962;28;20077;-65
2022/10/22 13:07:12;;;;;;;6.35;3.42;;;;;;;;;;5093249;28;20044;-66
2022/10/22 13:09:57;;;;;;;3.25;1.67;;;;;;;;;;5093371;28;20428;-65
2022/10/22 13:12:35;;;;;;;11.68;7.15;;;;;;;;;;5074079;28;20044;-65
2022/10/22 13:15:28;;;;;;;16.13;8.30;;;;;;;;;;5090953;28;20055;-65
2022/10/22 13:18:16;;;;;;;2.90;1.52;;;;;;;;;;5090745;28;20052;-66
2022/10/22 13:21:00;;;;;;;3.38;2.50;;;;;;;;;;5090977;28;20055;-65
2022/10/22 13:23:32;;;;;;;2.97;1.60;;;;;;;;;;5090867;28;20048;-64
2022/10/22 13:26:02;;;;;;;;;;;;;;;;;;5041177;28;20055;-64
2022/10/22 13:28:33;;;;;;;2.85;1.63;;;;;;;;;;5057159;28;20014;-65
2022/10/22 13:31:17;;;;;;;2.95;1.55;;;;;;;;;;5057469;28;20166;-66
2022/10/22 13:33:53;;;;;;;3.60;2.13;;;;;;;;;;5090251;28;20083;-65
2022/10/22 13:36:24;;;;;;;2.40;1.45;;;;;;;;;;5053720;28;20048;-65
2022/10/22 13:38:54;;;;;;;2.47;1.63;;;;;;;;;;5053430;28;20053;-65
2022/10/22 13:41:27;;;;;;;3.20;1.85;;;;;;;;;;5020186;28;20064;-65
2022/10/22 13:43:58;;;;;;;4.72;2.70;;;;;;;;;;5020547;28;20053;-66
2022/10/22 13:46:28;;;;;;;4.18;2.45;;;;;;;;;;5069681;28;20056;-65
2022/10/22 13:48:59;;;;;;;2.63;1.42;;;;;;;;;;5070151;28;20060;-65
2022/10/22 13:51:33;;;;;;;5.82;3.22;;;;;;;;;;4978232;28;20057;-65
2022/10/22 13:54:08;;;;;;;2.03;1.10;;;;;;;;;;5010165;28;20060;-64
2022/10/22 13:56:38;;;;;;;2.85;1.77;;;;;;;;;;5010274;28;20062;-64
2022/10/22 13:59:09;;;;;;;3.90;1.90;;;;;;;;;;4993633;28;20084;-66
2022/10/22 14:01:41;;;;;;;3.10;2.15;;;;;;;;;;5009773;28;20062;-63
2022/10/22 14:04:14;;;;;;;2.78;1.17;;;;;;;;;;5010114;28;20095;-63
2022/10/22 14:06:44;;;;;;;2.85;1.23;;;;;;;;;;5009906;28;20057;-62
2022/10/22 14:09:15;;;;;;;2.40;1.30;;;;;;;;;;5010180;28;20065;-63
2022/10/22 14:11:48;;;;;;;3.42;1.75;;;;;;;;;;4993411;28;20050;-65
2022/10/22 14:14:18;;;;;;;3.35;1.45;;;;;;;;;;5033232;28;20048;-61
2022/10/22 14:16:48;;;;;;;3.95;1.15;;;;;;;;;;5049389;28;20049;-62
2022/10/22 14:19:18;;;;;;;2.70;1.23;;;;;;;;;;5017339;28;20049;-60
2022/10/22 14:21:48;;;;;;;3.80;2.28;;;;;;;;;;5049446;28;20057;-58
2022/10/22 14:24:19;;;;;;;2.75;1.92;;;;;;;;;;5049843;28;20060;-62
2022/10/22 14:26:49;;;;;;;2.30;1.48;;;;;;;;;;5049364;28;20056;-61
2022/10/22 14:29:19;;;;;;;2.40;1.38;;;;;;;;;;5075134;28;20488;-65
2022/10/22 14:31:48;;;;;;;4.95;1.33;;;;;;;;;;5090708;28;20510;-63
2022/10/22 14:34:18;;;;;;;2.13;1.25;;;;;;;;;;5089956;28;20060;-61
2022/10/22 14:36:48;;;;;;;2.60;1.83;;;;;;;;;;5091544;28;20055;-63
2022/10/22 14:39:20;;;;;;;3.28;1.83;;;;;;;;;;5072868;28;20055;-63
2022/10/22 14:41:50;;;;;;;3.08;1.73;;;;;;;;;;5091972;28;20040;-63
2022/10/22 14:44:20;;;;;;;2.45;1.40;;;;;;;;;;5090953;28;20081;-63
2022/10/22 14:46:53;;;;;;;4.13;2.13;;;;;;;;;;5089266;28;20523;-64
2022/10/22 14:49:23;;;;;;;3.17;1.70;;;;;;;;;;5092018;28;20044;-64
2022/10/22 14:51:53;;;;;;;3.00;1.33;;;;;;;;;;5091736;28;20158;-63
2022/10/22 14:54:23;;;;;;;2.25;1.17;;;;;;;;;;5089621;28;20496;-64
2022/10/22 14:56:53;;;;;;;1.63;1.13;;;;;;;;;;5091811;28;20044;-64
2022/10/22 14:59:23;;;;;;;1.80;1.27;;;;;;;;;;5091819;28;20499;-64
2022/10/22 15:01:53;;;;;;;2.20;1.23;;;;;;;;;;5090855;28;20416;-63
2022/10/22 15:04:25;;;;;;;3.38;0.93;;;;;;;;;;5073196;28;20135;-63
2022/10/22 15:06:55;;;;;;;2.35;0.80;;;;;;;;;;5056104;28;20491;-63
2022/10/22 15:09:25;;;;;;;0.85;0.68;;;;;;;;;;5056123;28;20056;-63
2022/10/22 15:11:55;;;;;;;1.60;0.80;;;;;;;;;;5072690;28;20059;-64
2022/10/22 15:14:25;;;;;;;1.75;0.95;;;;;;;;;;5073105;28;20067;-64
2022/10/22 15:16:56;;;;;;;1.45;0.90;;;;;;;;;;5068752;28;20207;-64
2022/10/22 15:19:26;;;;;;;2.45;1.83;;;;;;;;;;5068994;28;20056;-64
2022/10/22 15:21:56;;;;;;;1.15;0.73;;;;;;;;;;5052189;28;20055;-64
2022/10/22 15:24:25;;;;;;;1.08;0.90;;;;;;;;;;5052400;28;20518;-64
2022/10/22 15:26:55;;;;;;;2.13;0.60;;;;;;;;;;5035544;28;20500;-64
2022/10/22 15:29:25;;;;;;;0.93;0.60;;;;;;;;;;5019459;28;20044;-63
2022/10/22 15:31:57;;;;;;;1.33;1.02;;;;;;;;;;5019185;28;20063;-63